AirNav   MODERNIZE NOT PRIVATIZE ATC
 
 965 users online  

L05 Kern Valley Airport
Kernville, California, USA


FAA INFORMATION EFFECTIVE 20 JULY 2017

Location

FAA Identifier: L05
Lat/Long: 35-43-41.6000N / 118-25-11.0000W
35-43.693333N / 118-25.183333W
35.7282222 / -118.4197222
(estimated)
Elevation: 2614 ft. / 796.7 m (surveyed)
Variation: 14E (1985)
From city: 3 miles S of KERNVILLE, CA
Time zone: UTC -7 (UTC -8 during Standard Time)
Zip code: 93238

Airport Operations

Airport use: Open to the public
Activation date: 07/1949
Control tower: no
ARTCC: LOS ANGELES CENTER
FSS: RANCHO MURIETA FLIGHT SERVICE STATION
NOTAMs facility: RIU (NOTAM-D service available)
Attendance: DAYLIGHT HOURS
Pattern altitude: 3614 ft. MSL
Wind indicator: yes
Segmented circle: yes

Airport Communications

CTAF/UNICOM: 122.8

Nearby radio navigation aids

VOR radial/distance  VOR name  Freq  Var
TTEr095/31.3TULE VOR/DME109.2016E
EHFr052/36.1SHAFTER VORTAC115.4014E

Airport Services

Parking: tiedowns
Airframe service: MINOR
Powerplant service: MINOR
Bottled oxygen: NONE
Bulk oxygen: NONE

Runway Information

Runway 17/35

Dimensions: 3500 x 50 ft. / 1067 x 15 m
Surface: asphalt, in good condition
Weight bearing capacity: 
Single wheel: GROSS RWY PAVEMENT STRENGTH ESTIMATE PRVDD BY ARPT MANAGER; 12500 LBS.
RUNWAY 17  RUNWAY 35
Latitude: 35-43.980500N35-43.405333N
Longitude: 118-25.154333W118-25.211000W
Gradient: 0.2%0.2%
Traffic pattern: rightleft
Markings: basic, in good conditionbasic, in good condition
Runway end identifier lights: nono
Obstructions: 10 ft. trees, 375 ft. from runway, 100 ft. right of centerline, 17:1 slope to clearnone
RWY 35 +1 FT ROCKS O-90 FT FM EOR 50 FT L TO 80 FT R PRVDG WASHOUT PROTECTION FM LAKE; +5 FT BRUSH 180-200 FT FM EOR 0 FT L.

Airport Ownership and Management from official FAA records

Ownership: Publicly-owned
Owner: COUNTY OF KERN DEPT OF AIRPORTS
3701 WINGS WAY, SUITE 300
BAKERSFIELD, CA 93308-7026
Phone 661-391-1800
OWNED BY US FOREST SVC ON LEASE TO KERN COUNTY.
Manager: RON BREWSTER
3701 WINGS WAY, SUITE 300
BAKERSFIELD, CA 93308-7026
Phone 661-391-1824
CELL 661-747-4053.

Airport Operational Statistics

Aircraft based on the field: 10
Single engine airplanes: 10
    
Aircraft operations: avg 32/day *
54% transient general aviation
44% local general aviation
2% military
* for 12-month period ending 11 April 2017

Additional Remarks

NO NIGHT OPERATIONS.
FLY-IN CAMPGROUND ON ARPT.

Instrument Procedures

There are no published instrument procedures at L05.

Some nearby airports with instrument procedures:

KIYK - Inyokern Airport (29 nm E)
KNID - China Lake Naval Air Weapons Station (Armitage Field) (36 nm E)
KBFL - Meadows Field Airport (36 nm SW)
KPTV - Porterville Municipal Airport (36 nm NW)
L45 - Bakersfield Municipal Airport (37 nm SW)
 
Loc | Ops | Rwys | IFR | FBO | Links
Com | Nav | Svcs | Stats | Notes


 
Area around L05 (Kern Valley Airport)
 
Road maps at: MapQuest Bing Google
 
Aerial photo
WARNING: Photo may not be current or correct
Aerial photo of L05 (Kern Valley Airport)
Photo by Pierre Kandorfer, 1-877-AIR-MOVIE

Do you have a better or more recent aerial photo of Kern Valley Airport that you would like to share? If so, please send us your photo.

 
Sectional chart

 
Airport distance calculator
Flying to Kern Valley Airport? Find the distance to fly.

From to L05

Sunrise and sunset
Times for 27-Jul-2017
 Local
(UTC-7)
 Zulu
(UTC)
Morning civil twilight05:3012:30
Sunrise05:5912:59
Sunset20:0203:02
Evening civil twilight20:3003:30

Current date and time
Zulu (UTC)  28-Jul-2017 01:03:23
Local (UTC-7)  27-Jul-2017 18:03:23
 
METAR
KIYK 
30nm E 
SuperAWOS
272355Z AUTO 15007KT 10SM 39/02 A2986
KBFL 
35nm SW 
280054Z 33013KT 10SM CLR 39/13 A2982 RMK AO2 SLP089 T03890128
KTSP 
36nm S 
280055Z AUTO 31015G19KT 10SM CLR 29/07 A3008 RMK AO2
KPTV 
36nm NW 
280056Z AUTO 30011KT 10SM 38/16 A2983 RMK AO2 SLP103 T03830156 $
KNID 
37nm E 
280056Z 17008KT 10SM FEW100 SCT280 39/01 A2984 RMK AO2 SLP076 T03940006 $
KMHV 
42nm S 
280040Z AUTO 30017KT 10SM CLR 36/08 A2992 RMK A01
TAF
KBFL 
35nm SW 
271720Z 2718/2818 VRB05KT P6SM SKC FM272000 30009G16KT P6SM SKC FM280400 VRB05KT P6SM SKC
KNID 
37nm E 
2723/2823 16008G18KT 9999 FEW100 SCT280 QNH2986INS TEMPO 2723/2801 VRB06KT BECMG 2723/2801 21012G20KT 9999 FEW100 FEW280 510009 QNH2984INS WND 150V240 BECMG 2802/2804 21007KT 9999 SKC 500000 QNH2981INS WND VRB05KT AFT 2812 T24/2813Z T41/2822Z LAST NO AMD AFT 2805/ NEXT 3115
NOTAMs
Click for the latest NOTAMs
NOTAMs are issued by the DoD/FAA and will open in a separate window not controlled by AirNav.

 

 
 

Where to Eat: Catering, Restaurants, Food shops

  
 Business Name 
 
 Contact 
 
 Services / Description 
 
Distance
 
Comments
  
Airport Cafe 760-376-2852
no information available

If you are affiliated with Airport Cafe and would like to show here your services, contact info, web link, logo, and more, click here
on airport  
   3 read write
 

Would you like to see your business listed on this page?

 If your business provides an interesting product or service to pilots, flight crews, aircraft, or users of the Kern Valley Airport, you should consider listing it here.  To start the listing process, click on the button below
 
Add a business
 

Other Pages about Kern Valley Airport

Update a link
 
Copyright © AirNav, LLC. All rights reserved. Privacy Policy  Contact